sensor_id;sensor_type;location;lat;lon;timestamp;pressure;altitude;pressure_sealevel;temperature;humidity
12868;BME280;33517;49.866;8.320;2023-12-07T00:00:40;100862.28;;;1.43;95.15
12868;BME280;33517;49.866;8.320;2023-12-07T00:03:32;100867.97;;;1.35;94.97
12868;BME280;33517;49.866;8.320;2023-12-07T00:06:24;100870.94;;;1.29;95.46
12868;BME280;33517;49.866;8.320;2023-12-07T00:09:15;100863.53;;;1.23;95.12
12868;BME280;33517;49.866;8.320;2023-12-07T00:12:08;100867.22;;;1.19;95.06
12868;BME280;33517;49.866;8.320;2023-12-07T00:15:01;100871.88;;;1.14;95.25
12868;BME280;33517;49.866;8.320;2023-12-07T00:17:53;100874.56;;;1.13;95.57
12868;BME280;33517;49.866;8.320;2023-12-07T00:20:45;100874.84;;;1.08;95.58
12868;BME280;33517;49.866;8.320;2023-12-07T00:23:37;100883.91;;;1.01;94.98
12868;BME280;33517;49.866;8.320;2023-12-07T00:26:29;100875.66;;;0.94;95.03
12868;BME280;33517;49.866;8.320;2023-12-07T00:29:21;100879.38;;;0.90;94.72
12868;BME280;33517;49.866;8.320;2023-12-07T00:32:15;100879.47;;;0.89;95.21
12868;BME280;33517;49.866;8.320;2023-12-07T00:35:08;100880.41;;;0.88;95.15
12868;BME280;33517;49.866;8.320;2023-12-07T00:38:00;100884.91;;;0.84;94.87
12868;BME280;33517;49.866;8.320;2023-12-07T00:40:52;100879.09;;;0.81;95.43
12868;BME280;33517;49.866;8.320;2023-12-07T00:43:44;100881.97;;;0.76;94.64
12868;BME280;33517;49.866;8.320;2023-12-07T00:46:36;100882.25;;;0.72;94.98
12868;BME280;33517;49.866;8.320;2023-12-07T00:49:29;100879.84;;;0.69;95.14
12868;BME280;33517;49.866;8.320;2023-12-07T00:52:21;100886.94;;;0.65;95.37
12868;BME280;33517;49.866;8.320;2023-12-07T00:55:13;100887.13;;;0.62;95.34
12868;BME280;33517;49.866;8.320;2023-12-07T00:58:05;100888.88;;;0.62;94.92
12868;BME280;33517;49.866;8.320;2023-12-07T01:00:57;100889.72;;;0.62;95.26
12868;BME280;33517;49.866;8.320;2023-12-07T01:03:49;100903.50;;;0.63;95.20
12868;BME280;33517;49.866;8.320;2023-12-07T01:06:42;100898.22;;;0.64;96.15
12868;BME280;33517;49.866;8.320;2023-12-07T01:09:34;100909.22;;;0.68;96.17
12868;BME280;33517;49.866;8.320;2023-12-07T01:12:26;100903.41;;;0.64;95.77
12868;BME280;33517;49.866;8.320;2023-12-07T01:15:19;100902.91;;;0.58;95.57
12868;BME280;33517;49.866;8.320;2023-12-07T01:18:11;100906.91;;;0.49;95.64
12868;BME280;33517;49.866;8.320;2023-12-07T01:21:03;100919.44;;;0.41;95.52
12868;BME280;33517;49.866;8.320;2023-12-07T01:23:56;100917.94;;;0.37;95.91
12868;BME280;33517;49.866;8.320;2023-12-07T01:26:48;100916.34;;;0.35;95.40
12868;BME280;33517;49.866;8.320;2023-12-07T01:29:40;100921.63;;;0.33;96.11
12868;BME280;33517;49.866;8.320;2023-12-07T01:32:32;100921.81;;;0.30;95.40
12868;BME280;33517;49.866;8.320;2023-12-07T01:35:24;100919.31;;;0.29;95.66
12868;BME280;33517;49.866;8.320;2023-12-07T01:38:16;100925.59;;;0.25;95.77
12868;BME280;33517;49.866;8.320;2023-12-07T01:41:11;100931.88;;;0.21;96.12
12868;BME280;33517;49.866;8.320;2023-12-07T01:44:03;100924.19;;;0.19;95.73
12868;BME280;33517;49.866;8.320;2023-12-07T01:46:55;100928.53;;;0.19;96.06
12868;BME280;33517;49.866;8.320;2023-12-07T01:49:47;100933.03;;;0.15;96.35
12868;BME280;33517;49.866;8.320;2023-12-07T01:52:41;100934.44;;;0.21;96.16
12868;BME280;33517;49.866;8.320;2023-12-07T01:55:35;100933.72;;;0.33;96.42
12868;BME280;33517;49.866;8.320;2023-12-07T01:58:29;100933.66;;;0.34;97.26
12868;BME280;33517;49.866;8.320;2023-12-07T02:01:21;100932.16;;;0.30;96.83
12868;BME280;33517;49.866;8.320;2023-12-07T02:04:13;100929.84;;;0.26;96.59
12868;BME280;33517;49.866;8.320;2023-12-07T02:07:06;100933.41;;;0.23;96.52
12868;BME280;33517;49.866;8.320;2023-12-07T02:09:58;100931.03;;;0.20;97.11
12868;BME280;33517;49.866;8.320;2023-12-07T02:12:50;100941.72;;;0.14;96.97
12868;BME280;33517;49.866;8.320;2023-12-07T02:15:44;100933.38;;;0.09;96.55
12868;BME280;33517;49.866;8.320;2023-12-07T02:18:39;100933.81;;;0.02;96.79
12868;BME280;33517;49.866;8.320;2023-12-07T02:21:37;100948.91;;;-0.07;96.22
12868;BME280;33517;49.866;8.320;2023-12-07T02:24:33;100951.00;;;-0.13;96.53
12868;BME280;33517;49.866;8.320;2023-12-07T02:27:34;100952.16;;;-0.19;97.15
12868;BME280;33517;49.866;8.320;2023-12-07T02:30:26;100947.19;;;-0.22;97.40
12868;BME280;33517;49.866;8.320;2023-12-07T02:33:18;100945.50;;;-0.23;96.51
12868;BME280;33517;49.866;8.320;2023-12-07T02:36:12;100940.50;;;-0.26;97.08
12868;BME280;33517;49.866;8.320;2023-12-07T02:39:08;100939.00;;;-0.30;96.42
12868;BME280;33517;49.866;8.320;2023-12-07T02:42:03;100947.84;;;-0.34;97.04
12868;BME280;33517;49.866;8.320;2023-12-07T02:44:57;100956.59;;;-0.36;97.38
12868;BME280;33517;49.866;8.320;2023-12-07T02:47:49;100957.00;;;-0.44;97.37
12868;BME280;33517;49.866;8.320;2023-12-07T02:50:41;100955.50;;;-0.48;97.02
12868;BME280;33517;49.866;8.320;2023-12-07T02:53:34;100954.00;;;-0.52;97.32
12868;BME280;33517;49.866;8.320;2023-12-07T02:56:26;100953.16;;;-0.52;96.87
12868;BME280;33517;49.866;8.320;2023-12-07T02:59:17;100944.44;;;-0.50;97.40
12868;BME280;33517;49.866;8.320;2023-12-07T03:02:11;100952.19;;;-0.50;97.39
12868;BME280;33517;49.866;8.320;2023-12-07T03:05:03;100958.81;;;-0.46;97.82
12868;BME280;33517;49.866;8.320;2023-12-07T03:07:56;100945.75;;;-0.43;97.95
12868;BME280;33517;49.866;8.320;2023-12-07T03:10:48;100954.25;;;-0.41;97.61
12868;BME280;33517;49.866;8.320;2023-12-07T03:13:40;100951.81;;;-0.44;97.63
12868;BME280;33517;49.866;8.320;2023-12-07T03:16:32;100963.25;;;-0.48;97.90
12868;BME280;33517;49.866;8.320;2023-12-07T03:19:25;100961.75;;;-0.52;98.15
12868;BME280;33517;49.866;8.320;2023-12-07T03:22:17;100962.09;;;-0.58;97.99
12868;BME280;33517;49.866;8.320;2023-12-07T03:25:09;100949.50;;;-0.64;97.02
12868;BME280;33517;49.866;8.320;2023-12-07T03:28:01;100954.88;;;-0.68;97.74
12868;BME280;33517;49.866;8.320;2023-12-07T03:30:53;100957.56;;;-0.70;97.13
12868;BME280;33517;49.866;8.320;2023-12-07T03:33:44;100960.22;;;-0.71;97.37
12868;BME280;33517;49.866;8.320;2023-12-07T03:36:38;100961.13;;;-0.72;97.13
12868;BME280;33517;49.866;8.320;2023-12-07T03:39:29;100958.63;;;-0.74;97.77
12868;BME280;33517;49.866;8.320;2023-12-07T03:42:23;100962.13;;;-0.75;97.39
12868;BME280;33517;49.866;8.320;2023-12-07T03:45:15;100962.28;;;-0.78;97.52
12868;BME280;33517;49.866;8.320;2023-12-07T03:48:06;100963.03;;;-0.76;97.31
12868;BME280;33517;49.866;8.320;2023-12-07T03:50:58;100967.38;;;-0.76;97.91
12868;BME280;33517;49.866;8.320;2023-12-07T03:53:52;100967.13;;;-0.72;97.93
12868;BME280;33517;49.866;8.320;2023-12-07T03:56:44;100974.59;;;-0.50;98.41
12868;BME280;33517;49.866;8.320;2023-12-07T03:59:36;100977.22;;;-0.35;98.67
12868;BME280;33517;49.866;8.320;2023-12-07T04:02:28;100971.44;;;-0.24;99.37
12868;BME280;33517;49.866;8.320;2023-12-07T04:05:23;100970.88;;;-0.14;99.64
12868;BME280;33517;49.866;8.320;2023-12-07T04:08:15;100975.19;;;-0.14;99.25
12868;BME280;33517;49.866;8.320;2023-12-07T04:11:08;100968.34;;;-0.15;99.87
12868;BME280;33517;49.866;8.320;2023-12-07T04:14:00;100972.94;;;-0.20;99.70
12868;BME280;33517;49.866;8.320;2023-12-07T04:16:52;100971.53;;;-0.26;99.89
12868;BME280;33517;49.866;8.320;2023-12-07T04:19:44;100976.19;;;-0.32;98.89
12868;BME280;33517;49.866;8.320;2023-12-07T04:22:36;100972.19;;;-0.38;99.03
12868;BME280;33517;49.866;8.320;2023-12-07T04:25:27;100970.44;;;-0.37;99.05
12868;BME280;33517;49.866;8.320;2023-12-07T04:28:21;100971.53;;;-0.41;99.12
12868;BME280;33517;49.866;8.320;2023-12-07T04:31:13;100980.34;;;-0.45;99.04
12868;BME280;33517;49.866;8.320;2023-12-07T04:34:04;100978.44;;;-0.42;99.74
12868;BME280;33517;49.866;8.320;2023-12-07T04:36:56;100977.44;;;-0.39;99.41
12868;BME280;33517;49.866;8.320;2023-12-07T04:39:48;100986.03;;;-0.39;99.93
12868;BME280;33517;49.866;8.320;2023-12-07T04:42:40;100980.59;;;-0.34;99.81
12868;BME280;33517;49.866;8.320;2023-12-07T04:45:33;100985.53;;;-0.30;99.95
12868;BME280;33517;49.866;8.320;2023-12-07T04:48:25;100982.78;;;-0.27;100.00
12868;BME280;33517;49.866;8.320;2023-12-07T04:51:17;100986.38;;;-0.29;100.00
12868;BME280;33517;49.866;8.320;2023-12-07T04:54:09;100990.88;;;-0.33;100.00
12868;BME280;33517;49.866;8.320;2023-12-07T04:57:01;100982.03;;;-0.29;100.00
12868;BME280;33517;49.866;8.320;2023-12-07T04:59:53;100981.34;;;-0.32;100.00
12868;BME280;33517;49.866;8.320;2023-12-07T05:02:47;100993.63;;;-0.36;100.00
12868;BME280;33517;49.866;8.320;2023-12-07T05:05:39;100990.47;;;-0.41;99.78
12868;BME280;33517;49.866;8.320;2023-12-07T05:08:31;100989.69;;;-0.43;100.00
12868;BME280;33517;49.866;8.320;2023-12-07T05:11:23;100978.53;;;-0.43;100.00
12868;BME280;33517;49.866;8.320;2023-12-07T05:14:15;100984.63;;;-0.44;99.91
12868;BME280;33517;49.866;8.320;2023-12-07T05:17:07;100989.84;;;-0.46;100.00
12868;BME280;33517;49.866;8.320;2023-12-07T05:20:00;100989.09;;;-0.48;100.00
12868;BME280;33517;49.866;8.320;2023-12-07T05:22:52;100994.13;;;-0.45;100.00
12868;BME280;33517;49.866;8.320;2023-12-07T05:25:44;100993.94;;;-0.42;100.00
12868;BME280;33517;49.866;8.320;2023-12-07T05:28:36;101002.78;;;-0.46;100.00
12868;BME280;33517;49.866;8.320;2023-12-07T05:31:28;100996.03;;;-0.48;100.00
12868;BME280;33517;49.866;8.320;2023-12-07T05:34:20;100990.44;;;-0.56;100.00
12868;BME280;33517;49.866;8.320;2023-12-07T05:37:13;100995.25;;;-0.66;100.00
12868;BME280;33517;49.866;8.320;2023-12-07T05:40:06;100992.13;;;-0.72;100.00
12868;BME280;33517;49.866;8.320;2023-12-07T05:42:58;100994.28;;;-0.80;100.00
12868;BME280;33517;49.866;8.320;2023-12-07T05:45:50;100995.50;;;-0.87;100.00
12868;BME280;33517;49.866;8.320;2023-12-07T05:48:42;100989.00;;;-0.95;100.00
12868;BME280;33517;49.866;8.320;2023-12-07T05:51:34;100990.06;;;-0.99;99.97
12868;BME280;33517;49.866;8.320;2023-12-07T05:54:27;100997.97;;;-1.02;100.00
12868;BME280;33517;49.866;8.320;2023-12-07T05:57:19;101002.53;;;-1.07;100.00
12868;BME280;33517;49.866;8.320;2023-12-07T06:00:12;101001.09;;;-1.12;99.97
12868;BME280;33517;49.866;8.320;2023-12-07T06:03:06;100997.81;;;-1.16;100.00
12868;BME280;33517;49.866;8.320;2023-12-07T06:05:59;101003.97;;;-1.18;100.00
12868;BME280;33517;49.866;8.320;2023-12-07T06:08:51;101006.03;;;-1.25;100.00
12868;BME280;33517;49.866;8.320;2023-12-07T06:11:45;101003.44;;;-1.25;100.00
12868;BME280;33517;49.866;8.320;2023-12-07T06:14:37;101005.19;;;-1.25;100.00
12868;BME280;33517;49.866;8.320;2023-12-07T06:17:29;101003.75;;;-1.31;100.00
12868;BME280;33517;49.866;8.320;2023-12-07T06:20:21;101003.06;;;-1.34;100.00
12868;BME280;33517;49.866;8.320;2023-12-07T06:23:13;100999.72;;;-1.36;100.00
12868;BME280;33517;49.866;8.320;2023-12-07T06:26:05;101003.28;;;-1.39;100.00
12868;BME280;33517;49.866;8.320;2023-12-07T06:28:59;101009.28;;;-1.38;100.00
12868;BME280;33517;49.866;8.320;2023-12-07T06:31:50;101013.53;;;-1.37;100.00
12868;BME280;33517;49.866;8.320;2023-12-07T06:34:42;101012.75;;;-1.39;100.00
12868;BME280;33517;49.866;8.320;2023-12-07T06:37:34;101021.19;;;-1.36;100.00
12868;BME280;33517;49.866;8.320;2023-12-07T06:40:26;101024.47;;;-1.32;100.00
12868;BME280;33517;49.866;8.320;2023-12-07T06:43:18;101027.88;;;-1.32;100.00
12868;BME280;33517;49.866;8.320;2023-12-07T06:46:12;101032.16;;;-1.14;100.00
12868;BME280;33517;49.866;8.320;2023-12-07T06:49:04;101036.25;;;-1.10;100.00
12868;BME280;33517;49.866;8.320;2023-12-07T06:51:56;101047.09;;;-1.03;100.00
12868;BME280;33517;49.866;8.320;2023-12-07T06:54:48;101044.06;;;-0.94;100.00
12868;BME280;33517;49.866;8.320;2023-12-07T06:57:39;101051.66;;;-0.91;100.00
12868;BME280;33517;49.866;8.320;2023-12-07T07:00:31;101050.97;;;-0.95;100.00
12868;BME280;33517;49.866;8.320;2023-12-07T07:03:25;101056.53;;;-1.02;100.00
12868;BME280;33517;49.866;8.320;2023-12-07T07:06:18;101057.41;;;-1.20;100.00
12868;BME280;33517;49.866;8.320;2023-12-07T07:09:10;101059.47;;;-1.27;100.00
12868;BME280;33517;49.866;8.320;2023-12-07T07:12:03;101068.75;;;-1.23;100.00
12868;BME280;33517;49.866;8.320;2023-12-07T07:14:55;101065.41;;;-1.25;100.00
12868;BME280;33517;49.866;8.320;2023-12-07T07:17:47;101065.78;;;-1.15;100.00
12868;BME280;33517;49.866;8.320;2023-12-07T07:20:41;101068.22;;;-0.95;100.00
12868;BME280;33517;49.866;8.320;2023-12-07T07:23:34;101081.50;;;-0.68;100.00
12868;BME280;33517;49.866;8.320;2023-12-07T07:26:26;101081.91;;;-0.43;100.00
12868;BME280;33517;49.866;8.320;2023-12-07T07:29:18;101077.03;;;-0.17;100.00
12868;BME280;33517;49.866;8.320;2023-12-07T07:32:10;101081.25;;;0.02;100.00
12868;BME280;33517;49.866;8.320;2023-12-07T07:35:02;101074.41;;;0.16;100.00
12868;BME280;33517;49.866;8.320;2023-12-07T07:37:55;101067.91;;;0.25;100.00
12868;BME280;33517;49.866;8.320;2023-12-07T07:40:47;101073.75;;;0.28;100.00
12868;BME280;33517;49.866;8.320;2023-12-07T07:43:39;101074.09;;;0.38;100.00
12868;BME280;33517;49.866;8.320;2023-12-07T07:46:31;101064.63;;;0.52;100.00
12868;BME280;33517;49.866;8.320;2023-12-07T07:49:23;101059.88;;;0.60;100.00
12868;BME280;33517;49.866;8.320;2023-12-07T07:52:15;101060.28;;;0.68;100.00
12868;BME280;33517;49.866;8.320;2023-12-07T07:55:10;101052.81;;;0.78;100.00
12868;BME280;33517;49.866;8.320;2023-12-07T07:58:02;101042.91;;;0.84;100.00
12868;BME280;33517;49.866;8.320;2023-12-07T08:00:54;101029.25;;;0.97;100.00
12868;BME280;33517;49.866;8.320;2023-12-07T08:03:46;101019.84;;;0.96;100.00
12868;BME280;33517;49.866;8.320;2023-12-07T08:06:38;101011.78;;;1.00;100.00
12868;BME280;33517;49.866;8.320;2023-12-07T08:09:30;101006.53;;;1.16;100.00
12868;BME280;33517;49.866;8.320;2023-12-07T08:12:23;101010.63;;;1.20;100.00
12868;BME280;33517;49.866;8.320;2023-12-07T08:15:15;101007.81;;;1.23;100.00
12868;BME280;33517;49.866;8.320;2023-12-07T08:18:07;101012.09;;;1.24;100.00
12868;BME280;33517;49.866;8.320;2023-12-07T08:20:59;101022.53;;;1.08;100.00
12868;BME280;33517;49.866;8.320;2023-12-07T08:23:51;101016.81;;;1.03;100.00
12868;BME280;33517;49.866;8.320;2023-12-07T08:26:43;101021.13;;;1.03;100.00
12868;BME280;33517;49.866;8.320;2023-12-07T08:29:36;101022.78;;;1.04;100.00
12868;BME280;33517;49.866;8.320;2023-12-07T08:32:28;101017.44;;;1.21;100.00
12868;BME280;33517;49.866;8.320;2023-12-07T08:35:20;101015.59;;;1.23;100.00
12868;BME280;33517;49.866;8.320;2023-12-07T08:38:13;101018.69;;;1.29;100.00
12868;BME280;33517;49.866;8.320;2023-12-07T08:41:05;101015.97;;;1.31;100.00
12868;BME280;33517;49.866;8.320;2023-12-07T08:43:57;101007.75;;;1.38;100.00
12868;BME280;33517;49.866;8.320;2023-12-07T08:46:51;101001.09;;;1.48;100.00
12868;BME280;33517;49.866;8.320;2023-12-07T08:49:43;101016.06;;;1.71;100.00
12868;BME280;33517;49.866;8.320;2023-12-07T08:52:35;101005.50;;;1.88;100.00
12868;BME280;33517;49.866;8.320;2023-12-07T08:55:27;101016.72;;;1.75;100.00
12868;BME280;33517;49.866;8.320;2023-12-07T08:58:20;101016.56;;;1.64;100.00
12868;BME280;33517;49.866;8.320;2023-12-07T09:01:12;101028.94;;;1.59;100.00
12868;BME280;33517;49.866;8.320;2023-12-07T09:04:06;101017.09;;;1.83;100.00
12868;BME280;33517;49.866;8.320;2023-12-07T09:06:58;101018.94;;;1.95;100.00
12868;BME280;33517;49.866;8.320;2023-12-07T09:09:49;101018.25;;;2.06;100.00
12868;BME280;33517;49.866;8.320;2023-12-07T09:12:41;101015.53;;;2.07;100.00
12868;BME280;33517;49.866;8.320;2023-12-07T09:15:33;101018.97;;;2.08;100.00
12868;BME280;33517;49.866;8.320;2023-12-07T09:18:27;101015.28;;;2.12;100.00
12868;BME280;33517;49.866;8.320;2023-12-07T09:21:21;101018.34;;;2.04;100.00
12868;BME280;33517;49.866;8.320;2023-12-07T09:24:12;101024.31;;;2.19;100.00
12868;BME280;33517;49.866;8.320;2023-12-07T09:27:04;101026.06;;;2.32;100.00
12868;BME280;33517;49.866;8.320;2023-12-07T09:29:56;101033.16;;;2.43;100.00
12868;BME280;33517;49.866;8.320;2023-12-07T09:32:48;101023.16;;;2.37;100.00
12868;BME280;33517;49.866;8.320;2023-12-07T09:35:40;101029.91;;;2.39;100.00
12868;BME280;33517;49.866;8.320;2023-12-07T09:38:35;101029.75;;;2.55;100.00
12868;BME280;33517;49.866;8.320;2023-12-07T09:41:27;101033.53;;;2.63;100.00
12868;BME280;33517;49.866;8.320;2023-12-07T09:44:20;101043.56;;;2.43;100.00
12868;BME280;33517;49.866;8.320;2023-12-07T09:47:12;101052.50;;;2.51;100.00
12868;BME280;33517;49.866;8.320;2023-12-07T09:50:05;101050.16;;;2.34;100.00
12868;BME280;33517;49.866;8.320;2023-12-07T09:52:58;101041.47;;;2.21;100.00
12868;BME280;33517;49.866;8.320;2023-12-07T09:55:51;101035.69;;;2.30;100.00
12868;BME280;33517;49.866;8.320;2023-12-07T09:58:43;101029.88;;;2.53;100.00
12868;BME280;33517;49.866;8.320;2023-12-07T10:01:35;101024.63;;;2.67;100.00
12868;BME280;33517;49.866;8.320;2023-12-07T10:04:29;101024.97;;;2.75;100.00
12868;BME280;33517;49.866;8.320;2023-12-07T10:07:32;101022.59;;;2.85;100.00
12868;BME280;33517;49.866;8.320;2023-12-07T10:10:25;101020.28;;;2.93;100.00
12868;BME280;33517;49.866;8.320;2023-12-07T10:13:19;101021.25;;;2.92;100.00
12868;BME280;33517;49.866;8.320;2023-12-07T10:16:12;101016.25;;;3.02;100.00
12868;BME280;33517;49.866;8.320;2023-12-07T10:19:13;101009.19;;;3.04;99.74
12868;BME280;33517;49.866;8.320;2023-12-07T10:22:13;101005.25;;;3.11;100.00
12868;BME280;33517;49.866;8.320;2023-12-07T10:25:06;100999.19;;;3.10;99.83
12868;BME280;33517;49.866;8.320;2023-12-07T10:27:58;100992.13;;;3.12;99.53
12868;BME280;33517;49.866;8.320;2023-12-07T10:30:51;100992.13;;;3.12;99.42
12868;BME280;33517;49.866;8.320;2023-12-07T10:33:47;100996.31;;;3.02;98.90
12868;BME280;33517;49.866;8.320;2023-12-07T10:36:39;101001.19;;;3.07;99.43
12868;BME280;33517;49.866;8.320;2023-12-07T10:39:31;101001.19;;;3.07;99.55
12868;BME280;33517;49.866;8.320;2023-12-07T10:42:24;101006.28;;;3.21;100.00
12868;BME280;33517;49.866;8.320;2023-12-07T10:45:16;100994.22;;;3.07;99.05
12868;BME280;33517;49.866;8.320;2023-12-07T10:48:10;100988.81;;;3.10;100.00
12868;BME280;33517;49.866;8.320;2023-12-07T10:51:07;100989.44;;;3.26;99.25
12868;BME280;33517;49.866;8.320;2023-12-07T10:54:02;100986.63;;;3.17;98.90
12868;BME280;33517;49.866;8.320;2023-12-07T10:56:55;100987.03;;;3.11;98.52
12868;BME280;33517;49.866;8.320;2023-12-07T10:59:48;100971.34;;;3.25;98.92
12868;BME280;33517;49.866;8.320;2023-12-07T11:02:42;100963.13;;;3.31;98.20
12868;BME280;33517;49.866;8.320;2023-12-07T11:05:37;100962.69;;;3.37;98.29
12868;BME280;33517;49.866;8.320;2023-12-07T11:08:37;100958.13;;;3.40;97.73
12868;BME280;33517;49.866;8.320;2023-12-07T11:11:34;100947.72;;;3.40;98.14
12868;BME280;33517;49.866;8.320;2023-12-07T11:14:28;100942.47;;;3.53;97.82
12868;BME280;33517;49.866;8.320;2023-12-07T11:17:20;100939.03;;;3.65;97.61
12868;BME280;33517;49.866;8.320;2023-12-07T11:20:18;100934.31;;;3.70;97.02
12868;BME280;33517;49.866;8.320;2023-12-07T11:23:15;100925.38;;;3.74;97.03
12868;BME280;33517;49.866;8.320;2023-12-07T11:26:08;100916.75;;;3.61;96.67
12868;BME280;33517;49.866;8.320;2023-12-07T11:29:00;100920.41;;;3.58;97.29
12868;BME280;33517;49.866;8.320;2023-12-07T11:31:55;100908.84;;;3.62;96.57
12868;BME280;33517;49.866;8.320;2023-12-07T11:34:48;100909.25;;;3.69;96.32
12868;BME280;33517;49.866;8.320;2023-12-07T11:38:04;100901.28;;;3.59;95.78
12868;BME280;33517;49.866;8.320;2023-12-07T11:40:59;100902.81;;;3.62;96.74
12868;BME280;33517;49.866;8.320;2023-12-07T11:43:51;100899.03;;;3.66;96.65
12868;BME280;33517;49.866;8.320;2023-12-07T11:46:46;100894.91;;;3.63;96.44
12868;BME280;33517;49.866;8.320;2023-12-07T11:49:38;100885.13;;;3.67;96.90
12868;BME280;33517;49.866;8.320;2023-12-07T11:52:30;100873.44;;;3.72;96.93
12868;BME280;33517;49.866;8.320;2023-12-07T11:55:22;100864.19;;;3.68;96.67
12868;BME280;33517;49.866;8.320;2023-12-07T11:58:15;100854.25;;;3.73;96.67
12868;BME280;33517;49.866;8.320;2023-12-07T12:01:08;100848.72;;;3.78;96.75
12868;BME280;33517;49.866;8.320;2023-12-07T12:04:00;100849.56;;;3.79;96.45
12868;BME280;33517;49.866;8.320;2023-12-07T12:06:52;100841.03;;;3.77;95.94
12868;BME280;33517;49.866;8.320;2023-12-07T12:09:45;100845.97;;;3.68;96.07
12868;BME280;33517;49.866;8.320;2023-12-07T12:12:37;100849.72;;;3.64;96.08
12868;BME280;33517;49.866;8.320;2023-12-07T12:15:32;100852.03;;;3.56;96.25
12868;BME280;33517;49.866;8.320;2023-12-07T12:18:24;100850.03;;;3.36;96.16
12868;BME280;33517;49.866;8.320;2023-12-07T12:21:18;100848.41;;;3.23;96.65
12868;BME280;33517;49.866;8.320;2023-12-07T12:24:11;100852.78;;;3.22;97.07
12868;BME280;33517;49.866;8.320;2023-12-07T12:27:03;100842.88;;;3.27;96.94
12868;BME280;33517;49.866;8.320;2023-12-07T12:29:56;100833.78;;;3.45;97.14
12868;BME280;33517;49.866;8.320;2023-12-07T12:32:49;100830.19;;;3.59;96.79
12868;BME280;33517;49.866;8.320;2023-12-07T12:35:42;100822.44;;;3.70;96.52
12868;BME280;33517;49.866;8.320;2023-12-07T12:38:35;100822.31;;;3.71;96.16
12868;BME280;33517;49.866;8.320;2023-12-07T12:41:27;100817.00;;;3.73;95.98
12868;BME280;33517;49.866;8.320;2023-12-07T12:44:21;100820.97;;;3.66;96.17
12868;BME280;33517;49.866;8.320;2023-12-07T12:47:13;100824.03;;;3.60;96.51
12868;BME280;33517;49.866;8.320;2023-12-07T12:50:08;100820.63;;;3.59;96.87
12868;BME280;33517;49.866;8.320;2023-12-07T12:53:01;100820.66;;;3.70;96.58
12868;BME280;33517;49.866;8.320;2023-12-07T12:55:55;100820.34;;;3.75;96.43
12868;BME280;33517;49.866;8.320;2023-12-07T12:58:48;100818.38;;;3.66;95.87
12868;BME280;33517;49.866;8.320;2023-12-07T13:01:41;100807.09;;;3.54;96.48
12868;BME280;33517;49.866;8.320;2023-12-07T13:04:33;100810.41;;;3.56;96.82
12868;BME280;33517;49.866;8.320;2023-12-07T13:07:26;100802.66;;;3.67;96.81
12868;BME280;33517;49.866;8.320;2023-12-07T13:10:18;100809.75;;;3.65;96.95
12868;BME280;33517;49.866;8.320;2023-12-07T13:13:11;100806.03;;;3.57;96.14
12868;BME280;33517;49.866;8.320;2023-12-07T13:16:03;100799.06;;;3.57;96.76
12868;BME280;33517;49.866;8.320;2023-12-07T13:18:55;100794.84;;;3.67;96.87
12868;BME280;33517;49.866;8.320;2023-12-07T13:21:47;100797.13;;;3.72;96.84
12868;BME280;33517;49.866;8.320;2023-12-07T13:24:40;100806.38;;;3.76;96.60
12868;BME280;33517;49.866;8.320;2023-12-07T13:27:32;100785.66;;;3.74;96.28
12868;BME280;33517;49.866;8.320;2023-12-07T13:30:24;100792.53;;;3.75;96.39
12868;BME280;33517;49.866;8.320;2023-12-07T13:33:20;100791.72;;;3.75;96.30
12868;BME280;33517;49.866;8.320;2023-12-07T13:36:13;100795.34;;;3.72;96.34
12868;BME280;33517;49.866;8.320;2023-12-07T13:39:08;100796.25;;;3.60;96.60
12868;BME280;33517;49.866;8.320;2023-12-07T13:42:05;100797.06;;;3.61;96.79
12868;BME280;33517;49.866;8.320;2023-12-07T13:44:58;100794.16;;;3.65;96.50
12868;BME280;33517;49.866;8.320;2023-12-07T13:47:51;100787.16;;;3.66;96.51
12868;BME280;33517;49.866;8.320;2023-12-07T13:50:43;100774.97;;;3.66;97.03
12868;BME280;33517;49.866;8.320;2023-12-07T13:53:35;100766.00;;;3.70;96.57
12868;BME280;33517;49.866;8.320;2023-12-07T13:56:28;100765.28;;;3.68;96.34
12868;BME280;33517;49.866;8.320;2023-12-07T13:59:21;100758.31;;;3.69;96.42
12868;BME280;33517;49.866;8.320;2023-12-07T14:02:13;100764.25;;;3.71;96.05
12868;BME280;33517;49.866;8.320;2023-12-07T14:05:06;100767.34;;;3.76;96.38
12868;BME280;33517;49.866;8.320;2023-12-07T14:07:58;100755.59;;;3.70;96.24
12868;BME280;33517;49.866;8.320;2023-12-07T14:10:50;100748.72;;;3.69;96.13
12868;BME280;33517;49.866;8.320;2023-12-07T14:13:42;100737.28;;;3.72;96.04
12868;BME280;33517;49.866;8.320;2023-12-07T14:16:38;100737.06;;;3.75;96.28
12868;BME280;33517;49.866;8.320;2023-12-07T14:19:30;100734.78;;;3.70;96.12
12868;BME280;33517;49.866;8.320;2023-12-07T14:22:22;100725.94;;;3.73;95.98
12868;BME280;33517;49.866;8.320;2023-12-07T14:25:14;100718.84;;;3.75;95.67
12868;BME280;33517;49.866;8.320;2023-12-07T14:28:06;100714.09;;;3.69;96.06
12868;BME280;33517;49.866;8.320;2023-12-07T14:30:58;100707.91;;;3.59;95.66
12868;BME280;33517;49.866;8.320;2023-12-07T14:33:52;100701.09;;;3.45;96.11
12868;BME280;33517;49.866;8.320;2023-12-07T14:36:44;100692.31;;;3.35;96.21
12868;BME280;33517;49.866;8.320;2023-12-07T14:39:36;100686.84;;;3.27;96.61
12868;BME280;33517;49.866;8.320;2023-12-07T14:42:28;100689.06;;;3.21;97.06
12868;BME280;33517;49.866;8.320;2023-12-07T14:45:20;100680.88;;;3.14;96.86
12868;BME280;33517;49.866;8.320;2023-12-07T14:48:12;100684.88;;;3.07;97.53
12868;BME280;33517;49.866;8.320;2023-12-07T14:51:06;100687.78;;;3.03;97.94
12868;BME280;33517;49.866;8.320;2023-12-07T14:53:58;100677.47;;;3.14;97.93
12868;BME280;33517;49.866;8.320;2023-12-07T14:56:50;100668.84;;;3.13;97.74
12868;BME280;33517;49.866;8.320;2023-12-07T14:59:42;100670.03;;;3.20;97.29
12868;BME280;33517;49.866;8.320;2023-12-07T15:02:34;100654.22;;;3.23;97.43
12868;BME280;33517;49.866;8.320;2023-12-07T15:05:28;100657.53;;;3.25;97.85